South Reno (Wolf Run), Nevada Weather observations

Data are for observation ending at time listed.
 Day   Time    Ave.   Ave.  Ave.  Vector   Max.   Stn.    Total    Solar   Ave.  
  of    of     Air    Rel.  Wind   Wind    Wind   Baro.  Precip.   Rad.    Soil  
Year   Day     Temp.  Hum.  Speed  Dir.    Gust   Pres.                    Temp. 
2015   (PST)    F      %     mph   deg.    mph     mb.     in.     W/m2     F   
------------------------------------------------------------------------------
 110   15:40   73.7    10    6.0   338     11.2  99999.0    0.00     341    58.0
 110   15:50   71.9    10    3.8   355      8.4  99999.0    0.00     206    58.2
 110   16:00   73.7    10    3.0   345      8.4  99999.0    0.00     414    58.3
 110   16:10   72.7    12    3.1   258     12.0  99999.0    0.00     201    58.4
 110   16:20   69.1    23   11.5   263     22.7  99999.0    0.00     185    58.5
 110   16:30   67.7    24   12.2   264     28.4  99999.0    0.00     153    58.6
 110   16:40   67.2    24   10.8   269     19.9  99999.0    0.00     111    58.6
 110   16:50   66.8    24   10.2   262     20.5  99999.0    0.00      94    58.7
 110   17:00   66.7    23   10.5   264     25.2  99999.0    0.00      80    58.7
 110   17:10   66.3    24   11.6   268     25.7  99999.0    0.00      61    58.7
 110   17:20   65.3    27   11.4   266     23.1  99999.0    0.00      56    58.7
 110   17:30   65.0    26   11.4   268     20.0  99999.0    0.00      60    58.7
 110   17:40   64.8    26   11.4   266     24.1  99999.0    0.00      59    58.7
 110   17:50   64.5    26   10.7   260     20.5  99999.0    0.00      52    58.7
 110   18:00   64.4    25    9.2   266     17.7  99999.0    0.00      46    58.7
 110   18:10   64.3    23   10.8   264     20.9  99999.0    0.00      37    58.6
 110   18:20   64.0    23   12.0   260     23.8  99999.0    0.00      34    58.6
 110   18:30   63.9    22   11.9   253     24.3  99999.0    0.00      23    58.5
 110   18:40   64.0    21    4.4   181     10.5  99999.0    0.00       8    58.5
 110   18:50   63.8    21    9.1   182     15.4  99999.0    0.00       2    58.4
 110   19:00   64.8    20    6.5   200     12.6  99999.0    0.00       0    58.3
 110   19:10   62.8    24    5.7   228      9.6  99999.0    0.00       0    58.2
 110   19:20   63.1    22    3.9   206      8.6  99999.0    0.00       0    58.2
 110   19:30   62.4    22    5.5   227      7.5  99999.0    0.00       0    58.1
 110   19:40   62.1    22    5.1   196      9.0  99999.0    0.00       0    58.0
 110   19:50   61.4    22    4.5   242     10.1  99999.0    0.00       0    58.0
 110   20:00   60.8    24    6.9   248     10.5  99999.0    0.00       0    57.9
 110   20:10   59.7    25    8.0   251     12.1  99999.0    0.00       0    57.8
 110   20:20   57.8    30    9.3   250     12.8  99999.0    0.00       0    57.7
 110   20:30   55.0    32    9.4   247     12.1  99999.0    0.00       0    57.7
 110   20:40   56.7    27    7.8   252     11.4  99999.0    0.00       0    57.6
 110   20:50   56.6    27    4.8   334      9.3  99999.0    0.00       0    57.5
 110   21:00   56.0    28    2.6   274      6.9  99999.0    0.00       0    57.4
 110   21:10   55.8    28    5.2   246      7.2  99999.0    0.00       0    57.2
 110   21:20   53.2    36    4.9   253      7.6  99999.0    0.00       0    57.1
 110   21:30   51.9    36    2.6   258      6.9  99999.0    0.00       0    56.9
 110   21:40   52.6    35    3.6   256      7.6  99999.0    0.00       0    56.8
 110   21:50   51.7    35    2.4   255      7.8  99999.0    0.00       0    56.7
 110   22:00   52.4    32    0.4   242      2.8  99999.0    0.00       0    56.6
 110   22:10   53.9    30    1.4   340      3.3  99999.0    0.00       0    56.4
 110   22:20   52.7    32    1.4   232      3.4  99999.0    0.00       0    56.3
 110   22:30   49.4    37    3.3   237      5.0  99999.0    0.00       0    56.2
 110   22:40   49.6    36    4.7   227      6.8  99999.0    0.00       0    56.1
 110   22:50   50.0    35    4.6   237      7.1  99999.0    0.00       0    56.0
 110   23:00   51.6    33    4.4   231      7.3  99999.0    0.00       0    55.9
 110   23:10   51.3    33    3.9   232      6.7  99999.0    0.00       0    55.9
 110   23:20   51.9    31    5.1   218      6.9  99999.0    0.00       0    55.8
 110   23:30   53.1    29    5.7   224      7.8  99999.0    0.00       0    55.7
 110   23:40   52.6    29    6.7   230     10.3  99999.0    0.00       0    55.6
 110   23:50   54.4    27    2.9   242      6.4  99999.0    0.00       0    55.5
 111    0:00   53.5    29    3.2   241      6.4  99999.0    0.00       0    55.4
 111    0:10   52.2    31    3.7   247      7.5  99999.0    0.00       0    55.3
 111    0:20   50.5    34    4.3   248      7.2  99999.0    0.00       0    55.3
 111    0:30   50.9    35    4.6   252      8.5  99999.0    0.00       0    55.2
 111    0:40   50.8    36    5.3   255      9.0  99999.0    0.00       0    55.1
 111    0:50   50.1    36    4.5   258      7.2  99999.0    0.00       0    55.0
 111    1:00   49.2    36    4.9   255      7.6  99999.0    0.00       0    55.0
 111    1:10   49.7    34    5.3   250      8.1  99999.0    0.00       0    54.9
 111    1:20   48.9    35    3.4   232      4.2  99999.0    0.00       0    54.8
 111    1:30   48.6    37    3.8   246      7.5  99999.0    0.00       0    54.7
 111    1:40   47.3    44    3.0   224      7.3  99999.0    0.00       0    54.7
 111    1:50   47.9    36    3.6   234      4.9  99999.0    0.00       0    54.6
 111    2:00   46.8    42    4.3   249      6.3  99999.0    0.00       0    54.5
 111    2:10   46.6    43    3.9   255      5.9  99999.0    0.00       0    54.4
 111    2:20   46.6    40    3.3   251      5.3  99999.0    0.00       0    54.3
 111    2:30   46.8    40    3.1   260      5.2  99999.0    0.00       0    54.2
 111    2:40   46.7    40    2.5   262      4.8  99999.0    0.00       0    54.1
 111    2:50   46.9    40    4.4   258      7.3  99999.0    0.00       0    54.0
 111    3:00   46.6    39    4.0   239      6.4  99999.0    0.00       0    53.9
 111    3:10   45.3    40    3.3   232      4.9  99999.0    0.00       0    53.9
 111    3:20   45.1    41    3.6   228      5.1  99999.0    0.00       0    53.8
 111    3:30   45.1    41    2.9   232      5.0  99999.0    0.00       0    53.7
 111    3:40   45.9    40    4.0   233      5.8  99999.0    0.00       0    53.6
 111    3:50   46.2    38    4.6   234      6.1  99999.0    0.00       0    53.5
 111    4:00   47.4    36    5.5   239      7.3  99999.0    0.00       0    53.5
 111    4:10   47.3    36    5.1   229      7.0  99999.0    0.00       0    53.4
 111    4:20   47.4    36    6.3   235     10.9  99999.0    0.00       0    53.3
 111    4:30   48.0    35    5.9   241      9.1  99999.0    0.00       0    53.3
 111    4:40   47.6    36    6.3   235      9.1  99999.0    0.00       0    53.2
 111    4:50   47.0    36    6.3   232      9.7  99999.0    0.00       0    53.1
 111    5:00   47.4    34    5.4   240      9.7  99999.0    0.00       0    53.0
 111    5:10   46.8    36    3.5   257      8.1  99999.0    0.00       1    53.0
 111    5:20   46.3    37    2.6   250      5.9  99999.0    0.00       5    52.9
 111    5:30   46.8    37    3.0   250      6.0  99999.0    0.00      11    52.9
 111    5:40   47.7    35    4.5   242      8.7  99999.0    0.00      28    52.8
 111    5:50   48.9    32    1.4   215      4.9  99999.0    0.00      52    52.7
 111    6:00   49.5    32    1.2   320      3.7  99999.0    0.00      82    52.7
 111    6:10   49.3    37    1.7   254      3.7  99999.0    0.00     117    52.6
 111    6:20   50.1    37    0.5   230      2.7  99999.0    0.00     148    52.6
 111    6:30   50.6    38    1.5    93      3.5  99999.0    0.00     178    52.5
 111    6:40   51.7    38    0.3    89      2.4  99999.0    0.00     212    52.4
 111    6:50   51.7    37    1.8    82      2.8  99999.0    0.00     247    52.4
 111    7:00   52.2    38    0.8    22      3.0  99999.0    0.00     286    52.3
 111    7:10   53.4    38    0.1    11      1.2  99999.0    0.00     258    52.3
 111    7:20   55.5    38    0.6    83      3.0  99999.0    0.00     347    52.2
 111    7:30   55.3    36    1.9    64      3.3  99999.0    0.00     390    52.2
 111    7:40   55.6    36    2.9    62      5.2  99999.0    0.00     419    52.2
 111    7:50   55.4    36    3.4    58      5.7  99999.0    0.00     436    52.2
 111    8:00   56.3    35    2.8    18      5.2  99999.0    0.00     471    52.1
 111    8:10   57.0    33    3.4     3      5.3  99999.0    0.00     504    52.1
 111    8:20   57.8    33    3.2    14      5.8  99999.0    0.00     543    52.1
 111    8:30   58.6    32    3.2    26      5.8  99999.0    0.00     575    52.1
 111    8:40   58.7    31    3.6    30      6.0  99999.0    0.00     605    52.1
 111    8:50   59.5    30    3.5    35      6.0  99999.0    0.00     635    52.2
 111    9:00   60.5    30    2.5    23      4.8  99999.0    0.00     664    52.2
 111    9:10   62.6    28    2.7    22      5.7  99999.0    0.00     691    52.2
 111    9:20   62.9    27    2.8     1      5.3  99999.0    0.00     705    52.3
 111    9:30   64.2    26    3.0     7      6.8  99999.0    0.00     709    52.3
 111    9:40   64.8    24    3.5    24      6.7  99999.0    0.00     768    52.4
 111    9:50   65.5    23    2.4    32      8.1  99999.0    0.00     798    52.5
 111   10:00   66.2    22    3.9     8      8.4  99999.0    0.00     823    52.6
 111   10:10   66.7    22    3.3    25      8.0  99999.0    0.00     845    52.7
 111   10:20   67.7    21    3.8     9      8.5  99999.0    0.00     867    52.8
 111   10:30   68.5    20    2.8    43      6.2  99999.0    0.00     892    52.9
 111   10:40   68.6    20    3.7    32      8.1  99999.0    0.00     913    53.0
 111   10:50   68.8    20    5.1   330      9.6  99999.0    0.00     927    53.2
 111   11:00   69.4    20    4.4   352      9.0  99999.0    0.00     926    53.3
 111   11:10   70.0    19    4.1    16      8.4  99999.0    0.00     947    53.5
 111   11:20   71.3    18    5.4   358      9.8  99999.0    0.00     990    53.6
 111   11:30   70.4    18    5.0    48      9.2  99999.0    0.00     845    53.8
 111   11:40   70.7    18    4.8   340     10.4  99999.0    0.00     777    54.0
 111   11:50   71.4    18    3.4   317     10.4  99999.0    0.00     813    54.2
 111   12:00   71.4    16    5.3   354      9.8  99999.0    0.00     766    54.4
 111   12:10   71.8    15    4.4   349      9.5  99999.0    0.00     691    54.6
 111   12:20   72.6    14    5.1   359     11.0  99999.0    0.00     858    54.8
 111   12:30   73.1    14    4.9   336     10.3  99999.0    0.00     757    55.0
 111   12:40   72.0    14    6.0   358     13.2  99999.0    0.00     506    55.1
 111   12:50   70.7    14    5.2    28     12.8  99999.0    0.00     275    55.3
 111   13:00   70.3    15    4.1    33      9.4  99999.0    0.00     269    55.5
 111   13:10   69.3    16    7.6    64     17.0  99999.0    0.00     304    55.7
 111   13:20   69.4    15    7.9    66     14.0  99999.0    0.00     338    55.9
 111   13:30   69.5    15    3.8    71     10.1  99999.0    0.00     338    56.0
 111   13:40   69.6    14    5.8    20     11.4  99999.0    0.00     265    56.2
 111   13:50   67.6    19   10.3   328     20.4  99999.0    0.00     144    56.3
 111   14:00   66.4    22    8.8   296     21.9  99999.0    0.00      91    56.4
 111   14:10   64.5    25   12.5   264     27.6  99999.0    0.00      75    56.6
 111   14:20   60.7    33   19.5   253     30.2  99999.0    0.00     107    56.6
 111   14:30   57.8    40   22.5   253     35.0  99999.0    0.00     165    56.7
 111   14:40   58.8    36   19.8   258     32.4  99999.0    0.00     222    56.8
 111   14:50   59.6    34   21.0   252     38.0  99999.0    0.00     282    56.8
 111   15:00   59.6    35   19.2   260     33.9  99999.0    0.00     317    56.9
 111   15:10   59.9    34   17.3   264     30.2  99999.0    0.00     352    56.9
 111   15:20   61.0    32   15.7   261     26.6  99999.0    0.00     452    56.9
 111   15:30   61.9    30   16.5   256     28.6  99999.0    0.00     437    56.9

Return to South Reno, Nevada graphs page.


Western Regional Climate Center,wrcc@dri.edu